createdAt,value
2018-06-27T00:01:10.593Z,14.74
2018-06-27T00:03:42.124Z,14.70
2018-06-27T00:06:10.895Z,14.75
2018-06-27T00:08:37.819Z,14.72
2018-06-27T00:11:04.720Z,14.77
2018-06-27T00:13:31.602Z,14.91
2018-06-27T00:16:00.325Z,14.93
2018-06-27T00:18:27.802Z,14.96
2018-06-27T00:20:55.646Z,14.94
2018-06-27T00:23:28.590Z,14.86
2018-06-27T00:25:56.574Z,14.85
2018-06-27T00:28:27.424Z,14.79
2018-06-27T00:30:54.393Z,14.88
2018-06-27T00:33:21.291Z,14.91
2018-06-27T00:35:52.269Z,14.96
2018-06-27T00:38:20.402Z,14.98
2018-06-27T00:40:47.830Z,14.92
2018-06-27T00:43:15.718Z,14.81
2018-06-27T00:45:46.599Z,14.90
2018-06-27T00:48:13.492Z,15.05
2018-06-27T00:50:42.530Z,15.03
2018-06-27T00:53:11.523Z,15.00
2018-06-27T00:55:39.286Z,15.00
2018-06-27T00:58:14.391Z,15.11
2018-06-27T01:00:43.297Z,15.05
2018-06-27T01:03:17.425Z,15.04
2018-06-27T01:05:44.807Z,14.97
2018-06-27T01:08:11.734Z,15.22
2018-06-27T01:10:38.703Z,15.24
2018-06-27T01:13:09.412Z,15.10
2018-06-27T01:15:36.358Z,14.88
2018-06-27T01:18:03.321Z,15.01
2018-06-27T01:20:32.351Z,15.09
2018-06-27T01:23:02.478Z,15.08
2018-06-27T01:25:31.314Z,15.08
2018-06-27T01:27:59.866Z,14.99
2018-06-27T01:30:29.766Z,14.97
2018-06-27T01:32:59.730Z,15.04
2018-06-27T01:35:27.694Z,15.03
2018-06-27T01:37:57.618Z,15.00
2018-06-27T01:40:26.438Z,14.99
2018-06-27T01:42:55.440Z,14.88
2018-06-27T01:45:22.390Z,14.88
2018-06-27T01:47:51.902Z,14.85
2018-06-27T01:50:18.879Z,14.77
2018-06-27T01:52:58.629Z,14.75
2018-06-27T01:55:26.600Z,14.73
2018-06-27T01:57:53.454Z,14.59
2018-06-27T02:00:24.746Z,14.52
2018-06-27T02:02:57.782Z,14.64
2018-06-27T02:05:27.338Z,15.03
2018-06-27T02:07:56.802Z,14.65
2018-06-27T02:10:29.438Z,14.59
2018-06-27T02:12:56.914Z,14.47
2018-06-27T02:15:24.350Z,14.47
2018-06-27T02:17:54.817Z,14.44
2018-06-27T02:20:22.801Z,14.57
2018-06-27T02:22:49.788Z,14.48
2018-06-27T02:25:20.342Z,14.41
2018-06-27T02:27:47.855Z,14.25
2018-06-27T02:30:21.806Z,14.14
2018-06-27T02:32:51.687Z,14.12
2018-06-27T02:35:19.819Z,14.16
2018-06-27T02:37:47.774Z,14.54
2018-06-27T02:40:22.006Z,14.17
2018-06-27T02:42:49.903Z,14.14
2018-06-27T02:45:16.781Z,14.21
2018-06-27T02:47:46.690Z,14.36
2018-06-27T02:50:19.158Z,14.44
2018-06-27T02:52:48.914Z,14.54
2018-06-27T02:55:19.846Z,14.61
2018-06-27T02:57:48.347Z,14.59
2018-06-27T03:00:16.353Z,14.55
2018-06-27T03:02:45.723Z,14.60
2018-06-27T03:05:13.426Z,14.63
2018-06-27T03:07:43.842Z,14.70
2018-06-27T03:10:10.803Z,14.41
2018-06-27T03:12:48.107Z,14.44
2018-06-27T03:15:17.126Z,14.37
2018-06-27T03:17:47.542Z,14.33
2018-06-27T03:20:15.614Z,14.35
2018-06-27T03:22:43.914Z,14.33
2018-06-27T03:25:13.557Z,14.36
2018-06-27T03:27:51.577Z,14.35
2018-06-27T03:30:19.354Z,14.39
2018-06-27T03:32:46.990Z,14.36
2018-06-27T03:35:14.477Z,14.42
2018-06-27T03:37:41.950Z,14.52
2018-06-27T03:40:08.895Z,14.64
2018-06-27T03:42:40.506Z,14.79
2018-06-27T03:45:13.485Z,14.96
2018-06-27T03:47:41.394Z,15.45
2018-06-27T03:50:11.954Z,15.50
2018-06-27T03:52:42.834Z,15.66
2018-06-27T03:55:14.910Z,16.03
2018-06-27T03:57:46.701Z,16.34
2018-06-27T04:00:19.826Z,16.71
2018-06-27T04:02:50.735Z,16.96
2018-06-27T04:05:26.203Z,17.23
2018-06-27T04:07:53.159Z,17.90
2018-06-27T04:10:20.134Z,18.34
2018-06-27T04:12:49.146Z,18.15
2018-06-27T04:15:18.036Z,18.41
2018-06-27T04:17:54.694Z,18.46
2018-06-27T04:20:24.675Z,18.59
2018-06-27T04:22:51.554Z,18.15
2018-06-27T04:25:21.509Z,17.97
2018-06-27T04:27:50.554Z,17.74
2018-06-27T04:30:18.519Z,18.02
2018-06-27T04:32:45.359Z,18.23
2018-06-27T04:35:12.213Z,18.40
2018-06-27T04:37:39.211Z,18.57
2018-06-27T04:40:06.954Z,18.46
2018-06-27T04:42:33.878Z,18.43
2018-06-27T04:45:09.098Z,18.34
2018-06-27T04:47:37.967Z,18.34
2018-06-27T04:50:10.172Z,18.46
2018-06-27T04:52:37.988Z,18.50
2018-06-27T04:55:04.983Z,18.54
2018-06-27T04:57:32.547Z,18.63
2018-06-27T04:59:59.480Z,18.71
2018-06-27T05:02:26.982Z,18.89
2018-06-27T05:04:55.491Z,18.82
2018-06-27T05:07:22.452Z,18.61
2018-06-27T05:09:49.394Z,18.46
2018-06-27T05:12:17.379Z,18.61
2018-06-27T05:14:44.325Z,18.66
2018-06-27T05:17:11.288Z,18.41
2018-06-27T05:19:45.518Z,18.52
2018-06-27T05:22:14.055Z,18.98
2018-06-27T05:24:40.976Z,19.06
2018-06-27T05:27:07.922Z,18.63
2018-06-27T05:29:46.310Z,18.65
2018-06-27T05:32:13.213Z,18.85
2018-06-27T05:34:40.166Z,18.96
2018-06-27T05:37:11.129Z,19.08
2018-06-27T05:39:38.962Z,18.95
2018-06-27T05:42:13.935Z,18.68
2018-06-27T05:44:40.911Z,18.99
2018-06-27T05:47:09.606Z,19.10
2018-06-27T05:49:40.189Z,19.28
2018-06-27T05:52:09.123Z,19.12
2018-06-27T05:54:39.150Z,19.19
2018-06-27T05:57:09.549Z,19.23
2018-06-27T05:59:37.621Z,19.34
2018-06-27T06:02:05.610Z,19.58
2018-06-27T06:04:33.661Z,19.41
2018-06-27T06:07:04.492Z,19.74
2018-06-27T06:09:32.624Z,19.68
2018-06-27T06:12:05.924Z,19.76
2018-06-27T06:14:39.614Z,20.09
2018-06-27T06:17:08.625Z,20.07
2018-06-27T06:19:35.578Z,20.32
2018-06-27T06:22:02.554Z,20.33
2018-06-27T06:24:30.073Z,20.45
2018-06-27T06:26:57.594Z,20.27
2018-06-27T06:29:25.585Z,20.22
2018-06-27T06:31:56.510Z,20.50
2018-06-27T06:34:27.839Z,20.72
2018-06-27T06:36:55.562Z,21.01
2018-06-27T06:39:24.433Z,21.04
2018-06-27T06:41:52.424Z,20.91
2018-06-27T06:44:21.012Z,20.80
2018-06-27T06:46:50.046Z,21.03
2018-06-27T06:49:18.623Z,21.36
2018-06-27T06:51:45.618Z,21.11
2018-06-27T06:54:14.178Z,21.24
2018-06-27T06:56:42.045Z,21.42
2018-06-27T06:59:19.577Z,21.58
2018-06-27T07:01:46.722Z,21.56
2018-06-27T07:04:16.590Z,21.72
2018-06-27T07:06:43.508Z,21.62
2018-06-27T07:09:12.298Z,21.82
2018-06-27T07:11:42.274Z,22.27
2018-06-27T07:14:11.122Z,22.07
2018-06-27T07:16:40.950Z,22.06
2018-06-27T07:19:08.542Z,22.23
2018-06-27T07:21:35.459Z,22.41
2018-06-27T07:24:14.719Z,22.65
2018-06-27T07:26:42.543Z,22.75
2018-06-27T07:29:12.514Z,22.80
2018-06-27T07:31:39.502Z,23.03
2018-06-27T07:34:08.330Z,22.75
2018-06-27T07:36:42.494Z,22.93
2018-06-27T07:39:12.446Z,22.75
2018-06-27T07:41:40.138Z,22.92
2018-06-27T07:44:07.078Z,23.02
2018-06-27T07:46:39.171Z,23.37
2018-06-27T07:49:06.128Z,23.24
2018-06-27T07:51:33.087Z,23.30
2018-06-27T07:54:00.036Z,23.59
2018-06-27T07:56:27.075Z,23.44
2018-06-27T07:58:54.535Z,23.78
2018-06-27T08:01:22.551Z,23.47
2018-06-27T08:03:50.094Z,23.80
2018-06-27T08:06:17.063Z,23.97
2018-06-27T08:08:44.331Z,23.85
2018-06-27T08:11:18.414Z,23.66
2018-06-27T08:13:45.323Z,23.24
2018-06-27T08:16:12.279Z,23.72
2018-06-27T08:18:42.973Z,23.84
2018-06-27T08:21:10.917Z,23.77
2018-06-27T08:23:37.930Z,24.04
2018-06-27T08:26:04.925Z,24.37
2018-06-27T08:28:31.781Z,24.62
2018-06-27T08:30:59.658Z,25.03
2018-06-27T08:33:28.159Z,25.06
2018-06-27T08:35:55.131Z,24.74
2018-06-27T08:38:22.039Z,24.51
2018-06-27T08:40:49.047Z,24.35
2018-06-27T08:43:16.018Z,24.07
2018-06-27T08:45:45.699Z,24.94
2018-06-27T08:48:15.230Z,25.56
2018-06-27T08:50:46.163Z,25.95
2018-06-27T08:53:15.619Z,25.70
2018-06-27T08:55:43.202Z,25.48
2018-06-27T08:58:12.186Z,25.34
2018-06-27T09:00:39.197Z,25.31
2018-06-27T09:03:06.617Z,25.13
2018-06-27T09:05:37.126Z,25.60
2018-06-27T09:08:04.099Z,25.85
2018-06-27T09:10:32.087Z,26.79
2018-06-27T09:13:00.674Z,27.23
2018-06-27T09:15:27.651Z,26.60
2018-06-27T09:17:58.981Z,26.18
2018-06-27T09:20:27.687Z,26.28
2018-06-27T09:22:54.643Z,26.57
2018-06-27T09:25:21.610Z,26.40
2018-06-27T09:27:48.703Z,26.30
2018-06-27T09:30:16.150Z,26.17
2018-06-27T09:32:43.707Z,26.33
2018-06-27T09:35:13.629Z,26.50
2018-06-27T09:37:41.246Z,26.39
2018-06-27T09:40:11.226Z,26.54
2018-06-27T09:42:38.727Z,27.24
2018-06-27T09:45:07.211Z,27.02
2018-06-27T09:47:34.658Z,27.21
2018-06-27T09:50:01.752Z,26.79
2018-06-27T09:52:28.682Z,26.21
2018-06-27T09:54:57.159Z,25.00
2018-06-27T09:57:27.111Z,24.01
2018-06-27T09:59:54.054Z,24.35
2018-06-27T10:02:28.699Z,25.33
2018-06-27T10:04:55.659Z,24.98
2018-06-27T10:07:26.195Z,25.61
2018-06-27T10:09:59.416Z,26.63
2018-06-27T10:12:27.201Z,27.59
2018-06-27T10:14:54.128Z,27.12
2018-06-27T10:17:21.172Z,26.77
2018-06-27T10:19:48.041Z,27.09
2018-06-27T10:22:16.150Z,26.85
2018-06-27T10:24:43.704Z,27.09
2018-06-27T10:27:11.182Z,26.01
2018-06-27T10:29:38.146Z,26.18
2018-06-27T10:32:05.135Z,26.18
2018-06-27T10:34:33.123Z,26.48
2018-06-27T10:37:00.052Z,26.08
2018-06-27T10:39:28.044Z,26.01
2018-06-27T10:41:54.975Z,26.84
2018-06-27T10:44:23.729Z,27.09
2018-06-27T10:46:55.708Z,26.54
2018-06-27T10:49:23.215Z,26.72
2018-06-27T10:51:50.169Z,26.71
2018-06-27T10:54:21.318Z,26.59
2018-06-27T10:56:48.295Z,26.99
2018-06-27T10:59:16.167Z,27.21
2018-06-27T11:01:43.159Z,27.08
2018-06-27T11:04:13.130Z,26.01
2018-06-27T11:06:43.070Z,26.36
2018-06-27T11:09:10.112Z,26.79
2018-06-27T11:11:39.759Z,27.11
2018-06-27T11:14:06.784Z,27.17
2018-06-27T11:16:35.343Z,27.50
2018-06-27T11:19:03.230Z,28.23
2018-06-27T11:21:30.155Z,28.07
2018-06-27T11:23:57.122Z,27.43
2018-06-27T11:26:24.088Z,26.99
2018-06-27T11:28:55.746Z,26.82
2018-06-27T11:31:22.707Z,26.92
2018-06-27T11:33:49.672Z,26.03
2018-06-27T11:36:16.591Z,25.86
2018-06-27T11:38:45.342Z,26.00
2018-06-27T11:41:13.289Z,25.97
2018-06-27T11:43:40.302Z,25.81
2018-06-27T11:46:08.232Z,26.06
2018-06-27T11:48:35.182Z,26.80
2018-06-27T11:51:03.158Z,27.24
2018-06-27T11:53:30.112Z,27.42
2018-06-27T11:55:57.087Z,27.00
2018-06-27T11:58:24.082Z,27.05
2018-06-27T12:00:51.694Z,27.20
2018-06-27T12:03:21.774Z,27.23
2018-06-27T12:05:50.232Z,27.05
2018-06-27T12:08:17.186Z,27.44
2018-06-27T12:10:44.167Z,28.23
2018-06-27T12:13:11.084Z,28.04
2018-06-27T12:15:38.138Z,27.39
2018-06-27T12:18:08.858Z,26.41
2018-06-27T12:20:37.694Z,26.03
2018-06-27T12:23:05.221Z,25.60
2018-06-27T12:25:32.043Z,25.55
2018-06-27T12:27:59.774Z,25.84
2018-06-27T12:30:27.283Z,26.53
2018-06-27T12:32:54.263Z,27.18
2018-06-27T12:35:21.787Z,26.87
2018-06-27T12:37:50.903Z,27.20
2018-06-27T12:40:18.886Z,26.77
2018-06-27T12:42:46.810Z,26.62
2018-06-27T12:45:14.214Z,27.23
2018-06-27T12:47:41.802Z,27.00
2018-06-27T12:50:10.262Z,27.00
2018-06-27T12:52:37.978Z,27.09
2018-06-27T12:55:08.007Z,27.13
2018-06-27T12:57:34.983Z,27.37
2018-06-27T13:00:02.334Z,27.64
2018-06-27T13:02:29.256Z,27.61
2018-06-27T13:04:56.382Z,27.56
2018-06-27T13:07:23.294Z,27.20
2018-06-27T13:09:51.833Z,27.23
2018-06-27T13:12:20.722Z,27.40
2018-06-27T13:14:47.653Z,27.83
2018-06-27T13:17:17.219Z,26.63
2018-06-27T13:19:49.147Z,26.43
2018-06-27T13:22:19.122Z,26.77
2018-06-27T13:24:46.049Z,27.24
2018-06-27T13:27:13.082Z,27.49
2018-06-27T13:29:41.831Z,27.71
2018-06-27T13:32:09.256Z,27.44
2018-06-27T13:34:36.830Z,27.44
2018-06-27T13:37:04.560Z,26.64
2018-06-27T13:39:31.463Z,25.87
2018-06-27T13:42:00.374Z,26.32
2018-06-27T13:44:27.346Z,26.58
2018-06-27T13:46:56.859Z,26.59
2018-06-27T13:49:23.835Z,26.75
2018-06-27T13:51:54.826Z,27.18
2018-06-27T13:54:23.363Z,27.17
2018-06-27T13:56:50.821Z,27.70
2018-06-27T13:59:19.356Z,27.22
2018-06-27T14:01:46.283Z,26.63
2018-06-27T14:04:13.250Z,27.11
2018-06-27T14:06:40.179Z,27.75
2018-06-27T14:09:09.506Z,27.44
2018-06-27T14:11:36.462Z,26.79
2018-06-27T14:14:03.603Z,26.00
2018-06-27T14:16:33.686Z,25.94
2018-06-27T14:19:00.706Z,26.81
2018-06-27T14:21:28.286Z,27.17
2018-06-27T14:23:55.277Z,27.25
2018-06-27T14:26:22.199Z,27.27
2018-06-27T14:28:49.265Z,27.78
2018-06-27T14:31:16.514Z,27.74
2018-06-27T14:33:43.642Z,27.67
2018-06-27T14:36:11.578Z,27.99
2018-06-27T14:38:39.555Z,27.74
2018-06-27T14:41:06.522Z,27.78
2018-06-27T14:43:33.482Z,28.42
2018-06-27T14:46:00.390Z,28.55
2018-06-27T14:48:27.407Z,28.89
2018-06-27T14:50:55.371Z,28.55
2018-06-27T14:53:26.810Z,28.96
2018-06-27T14:55:54.424Z,29.96
2018-06-27T14:58:22.358Z,30.01
2018-06-27T15:00:50.354Z,28.68
2018-06-27T15:03:17.317Z,28.47
2018-06-27T15:05:45.830Z,27.94
2018-06-27T15:08:14.836Z,28.89
2018-06-27T15:10:41.783Z,30.58
2018-06-27T15:13:08.726Z,30.65
2018-06-27T15:15:36.395Z,30.42
2018-06-27T15:18:04.027Z,31.53
2018-06-27T15:20:30.949Z,31.00
2018-06-27T15:22:58.910Z,30.16
2018-06-27T15:25:25.880Z,29.62
2018-06-27T15:27:52.847Z,30.73
2018-06-27T15:30:19.791Z,31.26
2018-06-27T15:32:46.763Z,31.79
2018-06-27T15:35:14.734Z,31.66
2018-06-27T15:37:41.596Z,32.66
2018-06-27T15:40:08.534Z,32.11
2018-06-27T15:42:36.399Z,31.27
2018-06-27T15:45:03.386Z,31.85
2018-06-27T15:47:30.834Z,29.68
2018-06-27T15:49:57.838Z,28.23
2018-06-27T15:52:24.758Z,29.92
2018-06-27T15:54:51.723Z,31.58
2018-06-27T15:57:18.897Z,32.22
2018-06-27T15:59:48.794Z,30.08
2018-06-27T16:02:18.438Z,29.39
2018-06-27T16:04:45.487Z,29.13
2018-06-27T16:07:12.476Z,28.45
2018-06-27T16:09:39.394Z,27.69
2018-06-27T16:12:06.371Z,28.06
2018-06-27T16:14:35.371Z,28.56
2018-06-27T16:17:02.458Z,28.12
2018-06-27T16:19:31.970Z,27.62
2018-06-27T16:21:58.862Z,27.21
2018-06-27T16:24:25.842Z,27.24
2018-06-27T16:26:52.798Z,28.42
2018-06-27T16:29:19.674Z,31.19
2018-06-27T16:31:46.612Z,33.94
2018-06-27T16:34:14.433Z,35.05
2018-06-27T16:36:41.354Z,34.10
2018-06-27T16:39:09.528Z,33.08
2018-06-27T16:41:37.570Z,33.34
2018-06-27T16:44:04.486Z,32.15
2018-06-27T16:46:31.500Z,33.02
2018-06-27T16:48:58.399Z,33.22
2018-06-27T16:51:25.514Z,32.99
2018-06-27T16:53:52.944Z,29.99
2018-06-27T16:56:20.647Z,28.55
2018-06-27T16:58:47.726Z,27.69
2018-06-27T17:01:15.624Z,27.14
2018-06-27T17:03:43.834Z,26.80
2018-06-27T17:06:10.766Z,27.81
2018-06-27T17:08:40.575Z,27.23
2018-06-27T17:11:13.738Z,26.97
2018-06-27T17:13:40.706Z,26.75
2018-06-27T17:16:07.630Z,26.50
2018-06-27T17:18:34.588Z,26.40
2018-06-27T17:21:02.486Z,26.19
2018-06-27T17:23:30.962Z,26.06
2018-06-27T17:26:00.850Z,28.42
2018-06-27T17:28:29.883Z,29.60
2018-06-27T17:30:56.854Z,30.92
2018-06-27T17:33:23.971Z,31.80
2018-06-27T17:35:50.746Z,32.03
2018-06-27T17:38:17.706Z,32.57
2018-06-27T17:40:45.182Z,32.57
2018-06-27T17:43:17.260Z,32.34
2018-06-27T17:45:44.922Z,29.71
2018-06-27T17:48:11.893Z,28.06
2018-06-27T17:50:38.866Z,27.05
2018-06-27T17:53:05.827Z,26.87
2018-06-27T17:55:33.833Z,26.85
2018-06-27T17:58:00.742Z,26.42
2018-06-27T18:00:27.715Z,26.00
2018-06-27T18:02:54.709Z,25.93
2018-06-27T18:05:21.619Z,26.21
2018-06-27T18:07:48.578Z,26.04
2018-06-27T18:10:17.594Z,25.88
2018-06-27T18:12:44.552Z,25.88
2018-06-27T18:15:11.494Z,25.64
2018-06-27T18:17:38.470Z,25.61
2018-06-27T18:20:05.927Z,27.10
2018-06-27T18:22:32.882Z,28.01
2018-06-27T18:24:59.857Z,26.81
2018-06-27T18:27:28.446Z,26.11
2018-06-27T18:29:55.463Z,25.23
2018-06-27T18:32:22.319Z,24.88
2018-06-27T18:34:50.219Z,24.73
2018-06-27T18:37:17.270Z,24.51
2018-06-27T18:39:44.258Z,24.47
2018-06-27T18:42:11.202Z,24.49
2018-06-27T18:44:38.172Z,24.61
2018-06-27T18:47:05.154Z,24.72
2018-06-27T18:49:32.079Z,24.56
2018-06-27T18:51:58.995Z,24.43
2018-06-27T18:54:25.870Z,24.21
2018-06-27T18:56:52.850Z,24.05
2018-06-27T18:59:19.826Z,23.90
2018-06-27T19:01:46.818Z,23.59
2018-06-27T19:04:13.687Z,23.39
2018-06-27T19:06:40.571Z,23.03
2018-06-27T19:09:08.943Z,22.76
2018-06-27T19:11:35.928Z,22.53
2018-06-27T19:14:03.096Z,22.19
2018-06-27T19:16:30.056Z,22.10
2018-06-27T19:18:58.053Z,21.86
2018-06-27T19:21:25.011Z,21.66
2018-06-27T19:23:51.926Z,21.55
2018-06-27T19:26:18.895Z,21.53
2018-06-27T19:28:46.880Z,21.35
2018-06-27T19:31:14.879Z,21.06
2018-06-27T19:33:41.953Z,20.86
2018-06-27T19:36:08.890Z,20.61
2018-06-27T19:38:35.986Z,20.59
2018-06-27T19:41:03.754Z,20.52
2018-06-27T19:43:30.496Z,20.49
2018-06-27T19:45:57.442Z,20.41
2018-06-27T19:48:24.373Z,20.42
2018-06-27T19:50:52.363Z,20.29
2018-06-27T19:53:19.318Z,20.13
2018-06-27T19:55:46.423Z,20.05
2018-06-27T19:58:13.447Z,20.03
2018-06-27T20:00:40.443Z,19.96
2018-06-27T20:03:07.359Z,19.88
2018-06-27T20:05:34.306Z,19.64
2018-06-27T20:08:01.430Z,19.61
2018-06-27T20:10:28.257Z,19.55
2018-06-27T20:12:55.244Z,19.58
2018-06-27T20:15:22.222Z,19.51
2018-06-27T20:17:49.087Z,19.42
2018-06-27T20:20:16.051Z,19.26
2018-06-27T20:22:43.058Z,19.14
2018-06-27T20:25:10.147Z,19.19
2018-06-27T20:27:37.218Z,19.17
2018-06-27T20:30:04.970Z,19.23
2018-06-27T20:32:32.499Z,19.12
2018-06-27T20:34:59.442Z,19.04
2018-06-27T20:37:26.418Z,18.85
2018-06-27T20:39:53.426Z,19.07
2018-06-27T20:42:20.367Z,19.28
2018-06-27T20:44:47.227Z,19.49
2018-06-27T20:47:14.213Z,19.76
2018-06-27T20:49:42.122Z,19.90
2018-06-27T20:52:10.118Z,19.84
2018-06-27T20:54:38.062Z,19.74
2018-06-27T20:57:05.070Z,19.50
2018-06-27T20:59:32.998Z,19.38
2018-06-27T21:01:59.979Z,19.25
2018-06-27T21:04:26.951Z,19.27
2018-06-27T21:06:53.855Z,19.25
2018-06-27T21:09:20.848Z,19.27
2018-06-27T21:11:47.858Z,19.23
2018-06-27T21:14:14.816Z,19.07
2018-06-27T21:16:41.710Z,18.95
2018-06-27T21:19:08.674Z,18.97
2018-06-27T21:21:35.667Z,18.86
2018-06-27T21:24:03.694Z,18.81
2018-06-27T21:26:30.715Z,18.65
2018-06-27T21:28:58.850Z,18.61
2018-06-27T21:31:25.822Z,18.48
2018-06-27T21:33:52.770Z,18.43
2018-06-27T21:36:20.752Z,18.38
2018-06-27T21:38:47.674Z,18.44
2018-06-27T21:41:14.574Z,18.38
2018-06-27T21:43:41.514Z,18.42
2018-06-27T21:46:08.486Z,18.44
2018-06-27T21:48:35.458Z,18.56
2018-06-27T21:51:02.403Z,18.60
2018-06-27T21:53:29.351Z,18.62
2018-06-27T21:55:56.383Z,18.59
2018-06-27T21:58:23.378Z,18.53
2018-06-27T22:00:50.346Z,18.54
2018-06-27T22:03:17.291Z,18.58
2018-06-27T22:05:44.259Z,18.57
2018-06-27T22:08:11.208Z,18.69
2018-06-27T22:10:40.246Z,18.68
2018-06-27T22:13:07.251Z,18.67
2018-06-27T22:15:34.215Z,18.62
2018-06-27T22:18:01.184Z,18.64
2018-06-27T22:20:29.057Z,18.55
2018-06-27T22:22:56.014Z,18.57
2018-06-27T22:25:23.710Z,18.55
2018-06-27T22:27:51.697Z,18.48
2018-06-27T22:30:18.638Z,18.34
2018-06-27T22:32:45.643Z,18.32
2018-06-27T22:35:12.526Z,18.13
2018-06-27T22:37:39.489Z,18.01
2018-06-27T22:40:06.474Z,17.88
2018-06-27T22:42:33.427Z,17.83
2018-06-27T22:45:00.342Z,17.82
2018-06-27T22:47:28.157Z,17.71
2018-06-27T22:49:55.122Z,17.83
2018-06-27T22:52:22.067Z,17.77
2018-06-27T22:54:50.046Z,17.83
2018-06-27T22:57:17.003Z,17.84
2018-06-27T22:59:43.962Z,17.71
2018-06-27T23:02:10.926Z,17.54
2018-06-27T23:04:37.870Z,17.32
2018-06-27T23:07:04.847Z,17.16
2018-06-27T23:09:31.799Z,16.96
2018-06-27T23:11:58.760Z,16.91
2018-06-27T23:14:25.599Z,16.89
2018-06-27T23:16:52.530Z,16.95
2018-06-27T23:19:20.467Z,16.96
2018-06-27T23:21:47.405Z,16.98
2018-06-27T23:24:14.558Z,17.00
2018-06-27T23:26:41.526Z,16.90
2018-06-27T23:29:08.482Z,16.89
2018-06-27T23:31:35.529Z,16.79
2018-06-27T23:34:02.551Z,16.65
2018-06-27T23:36:29.454Z,16.56
2018-06-27T23:38:56.379Z,16.40
2018-06-27T23:41:23.278Z,16.30
2018-06-27T23:43:50.275Z,16.38
2018-06-27T23:46:17.186Z,16.35
2018-06-27T23:48:44.518Z,16.27
2018-06-27T23:51:11.506Z,16.25
2018-06-27T23:53:38.490Z,16.11
2018-06-27T23:56:06.139Z,16.09
2018-06-27T23:58:33.090Z,16.15
